createdAt,value
2022-10-18T00:00:02.877Z,11.23
2022-10-18T00:00:52.888Z,11.24
2022-10-18T00:01:42.952Z,11.24
2022-10-18T00:02:32.916Z,11.24
2022-10-18T00:03:22.838Z,11.23
2022-10-18T00:04:12.828Z,11.23
2022-10-18T00:05:02.860Z,11.21
2022-10-18T00:05:52.817Z,11.21
2022-10-18T00:06:43.642Z,11.21
2022-10-18T00:07:33.213Z,11.23
2022-10-18T00:08:22.808Z,11.27
2022-10-18T00:09:12.777Z,11.26
2022-10-18T00:10:02.767Z,11.27
2022-10-18T00:10:52.758Z,11.27
2022-10-18T00:11:42.759Z,11.27
2022-10-18T00:12:32.784Z,11.27
2022-10-18T00:13:22.725Z,11.24
2022-10-18T00:14:12.748Z,11.24
2022-10-18T00:15:02.711Z,11.23
2022-10-18T00:15:52.710Z,11.23
2022-10-18T00:16:42.689Z,11.26
2022-10-18T00:17:32.973Z,11.27
2022-10-18T00:18:22.666Z,11.28
2022-10-18T00:19:12.667Z,11.30
2022-10-18T00:20:02.864Z,11.31
2022-10-18T00:20:52.647Z,11.33
2022-10-18T00:21:42.635Z,11.33
2022-10-18T00:22:33.030Z,11.33
2022-10-18T00:23:22.614Z,11.35
2022-10-18T00:24:12.633Z,11.35
2022-10-18T00:25:02.626Z,11.36
2022-10-18T00:25:52.586Z,11.38
2022-10-18T00:26:42.576Z,11.38
2022-10-18T00:27:32.569Z,11.38
2022-10-18T00:28:22.557Z,11.36
2022-10-18T00:29:12.548Z,11.38
2022-10-18T00:30:02.538Z,11.39
2022-10-18T00:30:52.557Z,11.39
2022-10-18T00:31:42.555Z,11.41
2022-10-18T00:32:32.879Z,11.41
2022-10-18T00:33:22.525Z,11.41
2022-10-18T00:34:12.500Z,11.41
2022-10-18T00:35:02.481Z,11.41
2022-10-18T00:35:52.479Z,11.39
2022-10-18T00:36:42.463Z,11.41
2022-10-18T00:37:32.454Z,11.39
2022-10-18T00:38:22.443Z,11.38
2022-10-18T00:39:13.049Z,11.38
2022-10-18T00:40:02.447Z,11.38
2022-10-18T00:40:52.426Z,11.38
2022-10-18T00:41:42.405Z,11.42
2022-10-18T00:42:32.653Z,11.41
2022-10-18T00:43:22.385Z,11.42
2022-10-18T00:44:12.450Z,11.44
2022-10-18T00:45:02.397Z,11.44
2022-10-18T00:45:52.365Z,11.46
2022-10-18T00:46:42.354Z,11.46
2022-10-18T00:47:32.373Z,11.48
2022-10-18T00:48:22.345Z,11.48
2022-10-18T00:49:12.325Z,11.49
2022-10-18T00:50:02.313Z,11.48
2022-10-18T00:50:52.311Z,11.49
2022-10-18T00:51:42.309Z,11.51
2022-10-18T00:52:32.609Z,11.51
2022-10-18T00:53:22.473Z,11.51
2022-10-18T00:54:12.275Z,11.51
2022-10-18T00:55:02.266Z,11.51
2022-10-18T00:55:52.254Z,11.53
2022-10-18T00:56:42.242Z,11.54
2022-10-18T00:57:32.232Z,11.56
2022-10-18T00:58:22.224Z,11.54
2022-10-18T00:59:12.294Z,11.54
2022-10-18T01:00:02.237Z,11.53
2022-10-18T01:00:52.217Z,11.57
2022-10-18T01:01:42.233Z,11.57
2022-10-18T01:02:32.444Z,11.59
2022-10-18T01:03:22.163Z,11.59
2022-10-18T01:04:12.158Z,11.59
2022-10-18T01:05:02.353Z,11.60
2022-10-18T01:05:52.134Z,11.60
2022-10-18T01:06:42.122Z,11.63
2022-10-18T01:07:32.599Z,11.66
2022-10-18T01:08:22.112Z,11.67
2022-10-18T01:09:12.103Z,11.67
2022-10-18T01:10:02.111Z,11.66
2022-10-18T01:10:52.082Z,11.66
2022-10-18T01:11:42.073Z,11.64
2022-10-18T01:12:32.062Z,11.64
2022-10-18T01:13:24.904Z,11.64
2022-10-18T01:14:12.041Z,11.64
2022-10-18T01:15:02.036Z,11.66
2022-10-18T01:15:52.086Z,11.66
2022-10-18T01:16:42.010Z,11.66
2022-10-18T01:17:32.289Z,11.66
2022-10-18T01:18:21.990Z,11.69
2022-10-18T01:19:11.980Z,11.70
2022-10-18T01:20:01.992Z,11.70
2022-10-18T01:20:52.000Z,11.72
2022-10-18T01:21:41.980Z,11.70
2022-10-18T01:22:31.951Z,11.70
2022-10-18T01:23:21.942Z,11.72
2022-10-18T01:24:11.930Z,11.72
2022-10-18T01:25:51.910Z,11.72
2022-10-18T01:26:41.960Z,11.74
2022-10-18T01:27:32.018Z,11.74
2022-10-18T01:28:21.879Z,11.72
2022-10-18T01:29:11.881Z,11.74
2022-10-18T01:30:01.857Z,11.75
2022-10-18T01:30:51.857Z,11.75
2022-10-18T01:31:41.839Z,11.75
2022-10-18T01:32:31.870Z,11.77
2022-10-18T01:33:21.832Z,11.77
2022-10-18T01:34:11.820Z,11.78
2022-10-18T01:35:01.804Z,11.77
2022-10-18T01:35:51.799Z,11.78
2022-10-18T01:36:41.779Z,11.79
2022-10-18T01:37:32.205Z,11.79
2022-10-18T01:38:21.789Z,11.79
2022-10-18T01:39:11.759Z,11.79
2022-10-18T01:40:01.748Z,11.78
2022-10-18T01:40:51.739Z,11.79
2022-10-18T01:41:41.736Z,11.79
2022-10-18T01:42:31.721Z,11.81
2022-10-18T01:43:21.712Z,11.79
2022-10-18T01:44:11.730Z,11.82
2022-10-18T01:45:01.692Z,11.82
2022-10-18T01:45:51.680Z,11.84
2022-10-18T01:46:41.878Z,11.82
2022-10-18T01:47:32.072Z,11.81
2022-10-18T01:48:21.657Z,11.81
2022-10-18T01:49:11.649Z,11.79
2022-10-18T01:50:01.670Z,11.78
2022-10-18T01:50:51.628Z,11.77
2022-10-18T01:51:41.615Z,11.78
2022-10-18T01:52:31.906Z,11.77
2022-10-18T01:53:21.602Z,11.74
2022-10-18T01:54:11.587Z,11.74
2022-10-18T01:55:01.617Z,11.75
2022-10-18T01:55:51.598Z,11.75
2022-10-18T01:56:41.557Z,11.75
2022-10-18T01:57:31.558Z,11.77
2022-10-18T01:58:21.538Z,11.77
2022-10-18T01:59:11.538Z,11.79
2022-10-18T02:00:01.537Z,11.79
2022-10-18T02:00:51.517Z,11.81
2022-10-18T02:01:41.717Z,11.81
2022-10-18T02:02:31.842Z,11.82
2022-10-18T02:03:21.485Z,11.82
2022-10-18T02:04:11.504Z,11.85
2022-10-18T02:05:01.468Z,11.87
2022-10-18T02:05:51.699Z,11.87
2022-10-18T02:06:41.446Z,11.88
2022-10-18T02:07:31.466Z,11.85
2022-10-18T02:08:23.587Z,11.82
2022-10-18T02:09:11.425Z,11.79
2022-10-18T02:10:01.485Z,11.78
2022-10-18T02:10:51.405Z,11.77
2022-10-18T02:11:41.396Z,11.77
2022-10-18T02:12:31.619Z,11.75
2022-10-18T02:13:21.374Z,11.75
2022-10-18T02:14:11.395Z,11.78
2022-10-18T02:15:01.362Z,11.78
2022-10-18T02:15:51.345Z,11.78
2022-10-18T02:16:41.340Z,11.78
2022-10-18T02:17:31.347Z,11.78
2022-10-18T02:18:21.322Z,11.79
2022-10-18T02:19:11.371Z,11.79
2022-10-18T02:20:01.325Z,11.79
2022-10-18T02:20:51.294Z,11.81
2022-10-18T02:21:41.284Z,11.81
2022-10-18T02:22:31.525Z,11.79
2022-10-18T02:23:21.266Z,11.78
2022-10-18T02:24:11.257Z,11.78
2022-10-18T02:25:01.250Z,11.78
2022-10-18T02:25:51.263Z,11.81
2022-10-18T02:26:41.234Z,11.79
2022-10-18T02:27:31.214Z,11.81
2022-10-18T02:28:21.308Z,11.79
2022-10-18T02:29:11.205Z,11.79
2022-10-18T02:30:01.206Z,11.79
2022-10-18T02:30:51.183Z,11.79
2022-10-18T02:31:41.183Z,11.81
2022-10-18T02:32:31.348Z,11.81
2022-10-18T02:33:21.151Z,11.79
2022-10-18T02:34:11.152Z,11.81
2022-10-18T02:35:01.143Z,11.79
2022-10-18T02:35:51.124Z,11.79
2022-10-18T02:36:41.195Z,11.75
2022-10-18T02:37:31.108Z,11.75
2022-10-18T02:38:21.095Z,11.74
2022-10-18T02:39:11.093Z,11.72
2022-10-18T02:40:01.090Z,11.72
2022-10-18T02:40:51.072Z,11.72
2022-10-18T02:41:41.053Z,11.70
2022-10-18T02:42:31.350Z,11.70
2022-10-18T02:43:21.045Z,11.70
2022-10-18T02:44:11.040Z,11.70
2022-10-18T02:45:01.013Z,11.69
2022-10-18T02:45:51.012Z,11.66
2022-10-18T02:46:41.005Z,11.64
2022-10-18T02:47:31.279Z,11.66
2022-10-18T02:48:21.023Z,11.64
2022-10-18T02:49:10.973Z,11.64
2022-10-18T02:50:00.981Z,11.66
2022-10-18T02:50:50.956Z,11.67
2022-10-18T02:51:40.952Z,11.67
2022-10-18T02:52:30.949Z,11.66
2022-10-18T02:53:20.927Z,11.64
2022-10-18T02:54:10.940Z,11.66
2022-10-18T02:55:00.901Z,11.64
2022-10-18T02:55:50.902Z,11.63
2022-10-18T02:56:40.891Z,11.62
2022-10-18T02:57:31.287Z,11.62
2022-10-18T02:58:20.870Z,11.62
2022-10-18T02:59:10.881Z,11.62
2022-10-18T03:00:00.882Z,11.60
2022-10-18T03:00:50.839Z,11.56
2022-10-18T03:01:40.897Z,11.53
2022-10-18T03:02:30.829Z,11.53
2022-10-18T03:03:20.826Z,11.53
2022-10-18T03:04:10.802Z,11.51
2022-10-18T03:05:00.801Z,11.49
2022-10-18T03:05:50.811Z,11.48
2022-10-18T03:06:40.780Z,11.46
2022-10-18T03:07:31.176Z,11.48
2022-10-18T03:08:20.760Z,11.46
2022-10-18T03:09:10.753Z,11.46
2022-10-18T03:10:00.750Z,11.45
2022-10-18T03:10:50.729Z,11.42
2022-10-18T03:11:40.768Z,11.42
2022-10-18T03:12:30.710Z,11.42
2022-10-18T03:13:20.753Z,11.41
2022-10-18T03:14:10.690Z,11.41
2022-10-18T03:15:00.693Z,11.38
2022-10-18T03:15:50.682Z,11.38
2022-10-18T03:16:40.670Z,11.38
2022-10-18T03:17:30.986Z,11.36
2022-10-18T03:18:20.649Z,11.38
2022-10-18T03:19:10.638Z,11.36
2022-10-18T03:20:00.631Z,11.35
2022-10-18T03:20:50.621Z,11.35
2022-10-18T03:21:40.609Z,11.33
2022-10-18T03:22:30.611Z,11.33
2022-10-18T03:23:20.621Z,11.30
2022-10-18T03:24:10.579Z,11.30
2022-10-18T03:25:00.578Z,11.31
2022-10-18T03:25:50.565Z,11.31
2022-10-18T03:26:40.588Z,11.31
2022-10-18T03:27:30.809Z,11.31
2022-10-18T03:28:20.539Z,11.30
2022-10-18T03:29:10.616Z,11.30
2022-10-18T03:30:00.518Z,11.28
2022-10-18T03:30:50.509Z,11.27
2022-10-18T03:31:40.500Z,11.26
2022-10-18T03:32:30.785Z,11.23
2022-10-18T03:33:20.480Z,11.23
2022-10-18T03:34:10.487Z,11.20
2022-10-18T03:35:00.497Z,11.20
2022-10-18T03:35:50.448Z,11.19
2022-10-18T03:36:40.465Z,11.19
2022-10-18T03:37:30.428Z,11.13
2022-10-18T03:38:20.538Z,11.13
2022-10-18T03:39:10.408Z,11.12
2022-10-18T03:40:00.413Z,11.13
2022-10-18T03:40:50.410Z,11.16
2022-10-18T03:41:40.396Z,11.11
2022-10-18T03:42:30.705Z,11.12
2022-10-18T03:43:20.372Z,11.12
2022-10-18T03:44:10.387Z,11.11
2022-10-18T03:45:00.350Z,11.09
2022-10-18T03:45:50.336Z,11.11
2022-10-18T03:46:40.335Z,11.09
2022-10-18T03:47:30.335Z,11.09
2022-10-18T03:48:20.310Z,11.11
2022-10-18T03:49:10.296Z,11.11
2022-10-18T03:50:00.315Z,11.11
2022-10-18T03:50:50.275Z,11.09
2022-10-18T03:51:40.275Z,11.09
2022-10-18T03:52:30.550Z,11.08
2022-10-18T03:53:20.256Z,11.02
2022-10-18T03:54:10.246Z,11.02
2022-10-18T03:55:00.236Z,10.98
2022-10-18T03:55:50.258Z,10.94
2022-10-18T03:56:40.215Z,10.93
2022-10-18T03:57:30.204Z,10.90
2022-10-18T03:58:20.263Z,10.90
2022-10-18T03:59:10.186Z,10.88
2022-10-18T04:00:00.240Z,10.87
2022-10-18T04:00:50.165Z,10.87
2022-10-18T04:01:40.228Z,10.87
2022-10-18T04:02:30.457Z,10.87
2022-10-18T04:03:20.143Z,10.88
2022-10-18T04:04:10.345Z,10.87
2022-10-18T04:05:00.124Z,10.87
2022-10-18T04:05:50.106Z,10.87
2022-10-18T04:06:40.104Z,10.88
2022-10-18T04:07:30.128Z,10.87
2022-10-18T04:08:20.086Z,10.87
2022-10-18T04:09:10.378Z,10.87
2022-10-18T04:10:00.119Z,10.86
2022-10-18T04:10:50.054Z,10.88
2022-10-18T04:11:40.055Z,10.87
2022-10-18T04:12:30.371Z,10.87
2022-10-18T04:13:20.023Z,10.86
2022-10-18T04:14:10.016Z,10.88
2022-10-18T04:15:00.006Z,10.90
2022-10-18T04:15:50.034Z,10.87
2022-10-18T04:16:39.996Z,10.86
2022-10-18T04:17:30.220Z,10.87
2022-10-18T04:18:20.536Z,10.86
2022-10-18T04:19:09.964Z,10.86
2022-10-18T04:19:59.953Z,10.84
2022-10-18T04:20:49.943Z,10.83
2022-10-18T04:21:39.969Z,10.84
2022-10-18T04:22:29.922Z,10.81
2022-10-18T04:23:19.912Z,10.80
2022-10-18T04:24:09.913Z,10.78
2022-10-18T04:24:59.904Z,10.78
2022-10-18T04:25:49.885Z,10.76
2022-10-18T04:26:39.873Z,10.78
2022-10-18T04:27:30.222Z,10.75
2022-10-18T04:28:19.854Z,10.73
2022-10-18T04:29:09.948Z,10.73
2022-10-18T04:29:59.844Z,10.72
2022-10-18T04:30:49.840Z,10.70
2022-10-18T04:31:39.828Z,10.69
2022-10-18T04:32:29.809Z,10.69
2022-10-18T04:33:19.831Z,10.69
2022-10-18T04:34:09.801Z,10.65
2022-10-18T04:34:59.795Z,10.66
2022-10-18T04:35:49.773Z,10.68
2022-10-18T04:36:39.775Z,10.65
2022-10-18T04:37:30.040Z,10.65
2022-10-18T04:38:19.742Z,10.66
2022-10-18T04:39:09.945Z,10.63
2022-10-18T04:39:59.745Z,10.60
2022-10-18T04:40:49.733Z,10.62
2022-10-18T04:41:39.719Z,10.60
2022-10-18T04:42:29.700Z,10.60
2022-10-18T04:43:19.690Z,10.55
2022-10-18T04:44:09.682Z,10.57
2022-10-18T04:44:59.732Z,10.52
2022-10-18T04:45:49.659Z,10.49
2022-10-18T04:46:39.652Z,10.47
2022-10-18T04:47:29.795Z,10.49
2022-10-18T04:48:19.649Z,10.51
2022-10-18T04:49:09.620Z,10.51
2022-10-18T04:49:59.620Z,10.49
2022-10-18T04:50:49.812Z,10.46
2022-10-18T04:51:39.600Z,10.44
2022-10-18T04:52:29.590Z,10.46
2022-10-18T04:53:19.578Z,10.51
2022-10-18T04:54:09.572Z,10.57
2022-10-18T04:54:59.567Z,10.60
2022-10-18T04:55:49.550Z,10.55
2022-10-18T04:56:39.587Z,10.47
2022-10-18T04:57:29.837Z,10.44
2022-10-18T04:58:19.528Z,10.44
2022-10-18T04:59:09.510Z,10.43
2022-10-18T04:59:59.509Z,10.43
2022-10-18T05:00:49.501Z,10.42
2022-10-18T05:01:39.653Z,10.42
2022-10-18T05:02:29.820Z,10.42
2022-10-18T05:03:19.469Z,10.44
2022-10-18T05:04:09.457Z,10.44
2022-10-18T05:04:59.451Z,10.44
2022-10-18T05:06:01.209Z,10.46
2022-10-18T05:06:40.443Z,10.46
2022-10-18T05:07:29.417Z,10.49
2022-10-18T05:08:19.509Z,10.47
2022-10-18T05:09:09.398Z,10.47
2022-10-18T05:09:59.403Z,10.49
2022-10-18T05:10:49.378Z,10.51
2022-10-18T05:11:39.381Z,10.52
2022-10-18T05:12:29.697Z,10.54
2022-10-18T05:13:19.385Z,10.55
2022-10-18T05:14:09.378Z,10.54
2022-10-18T05:14:59.338Z,10.57
2022-10-18T05:15:49.329Z,10.55
2022-10-18T05:16:39.323Z,10.54
2022-10-18T05:17:29.307Z,10.49
2022-10-18T05:18:19.308Z,10.47
2022-10-18T05:19:09.287Z,10.46
2022-10-18T05:19:59.306Z,10.47
2022-10-18T05:20:49.266Z,10.47
2022-10-18T05:21:39.266Z,10.44
2022-10-18T05:22:29.511Z,10.43
2022-10-18T05:23:19.257Z,10.43
2022-10-18T05:24:09.236Z,10.43
2022-10-18T05:24:59.229Z,10.44
2022-10-18T05:25:49.236Z,10.46
2022-10-18T05:26:39.208Z,10.46
2022-10-18T05:27:29.197Z,10.47
2022-10-18T05:28:39.544Z,10.46
2022-10-18T05:29:10.289Z,10.46
2022-10-18T05:30:01.371Z,10.44
2022-10-18T05:30:50.156Z,10.44
2022-10-18T05:31:39.156Z,10.46
2022-10-18T05:32:29.283Z,10.43
2022-10-18T05:33:19.143Z,10.43
2022-10-18T05:34:09.128Z,10.46
2022-10-18T05:34:59.116Z,10.46
2022-10-18T05:35:49.159Z,10.44
2022-10-18T05:36:39.096Z,10.43
2022-10-18T05:37:29.108Z,10.43
2022-10-18T05:38:19.143Z,10.43
2022-10-18T05:39:09.067Z,10.44
2022-10-18T05:39:59.073Z,10.49
2022-10-18T05:40:49.045Z,10.51
2022-10-18T05:41:39.044Z,10.51
2022-10-18T05:42:29.109Z,10.52
2022-10-18T05:43:19.032Z,10.52
2022-10-18T05:44:09.034Z,10.52
2022-10-18T05:44:59.004Z,10.52
2022-10-18T05:45:48.991Z,10.49
2022-10-18T05:46:38.993Z,10.49
2022-10-18T05:47:29.038Z,10.52
2022-10-18T05:48:18.982Z,10.52
2022-10-18T05:49:08.953Z,10.54
2022-10-18T05:49:58.991Z,10.55
2022-10-18T05:50:48.939Z,10.55
2022-10-18T05:51:38.935Z,10.57
2022-10-18T05:52:28.944Z,10.57
2022-10-18T05:53:35.746Z,10.58
2022-10-18T05:54:09.902Z,10.57
2022-10-18T05:54:58.904Z,10.60
2022-10-18T05:55:49.373Z,10.62
2022-10-18T05:57:29.257Z,10.63
2022-10-18T05:58:18.861Z,10.65
2022-10-18T05:59:08.935Z,10.68
2022-10-18T05:59:58.834Z,10.68
2022-10-18T06:00:48.821Z,10.68
2022-10-18T06:01:39.022Z,10.68
2022-10-18T06:02:28.912Z,10.66
2022-10-18T06:03:18.801Z,10.69
2022-10-18T06:04:08.782Z,10.69
2022-10-18T06:04:58.782Z,10.68
2022-10-18T06:05:48.778Z,10.70
2022-10-18T06:06:38.772Z,10.72
2022-10-18T06:07:28.880Z,10.70
2022-10-18T06:08:18.756Z,10.70
2022-10-18T06:09:08.735Z,10.70
2022-10-18T06:09:58.732Z,10.73
2022-10-18T06:10:48.721Z,10.76
2022-10-18T06:11:38.715Z,10.78
2022-10-18T06:12:28.742Z,10.80
2022-10-18T06:13:18.692Z,10.81
2022-10-18T06:14:08.688Z,10.81
2022-10-18T06:14:58.670Z,10.83
2022-10-18T06:15:48.663Z,10.84
2022-10-18T06:16:38.653Z,10.86
2022-10-18T06:17:31.721Z,10.87
2022-10-18T06:18:18.864Z,10.88
2022-10-18T06:19:08.620Z,10.91
2022-10-18T06:19:58.617Z,10.91
2022-10-18T06:20:48.600Z,10.94
2022-10-18T06:21:38.602Z,10.95
2022-10-18T06:22:28.591Z,10.98
2022-10-18T06:23:18.580Z,10.98
2022-10-18T06:24:08.589Z,10.98
2022-10-18T06:24:58.567Z,10.98
2022-10-18T06:25:48.548Z,11.01
2022-10-18T06:26:38.539Z,11.02
2022-10-18T06:27:28.747Z,11.03
2022-10-18T06:28:18.529Z,11.05
2022-10-18T06:29:08.631Z,11.06
2022-10-18T06:29:58.547Z,11.09
2022-10-18T06:30:48.505Z,11.09
2022-10-18T06:31:38.489Z,11.09
2022-10-18T06:32:28.481Z,11.12
2022-10-18T06:33:18.474Z,11.13
2022-10-18T06:34:08.473Z,11.16
2022-10-18T06:34:58.449Z,11.17
2022-10-18T06:35:48.467Z,11.19
2022-10-18T06:36:38.428Z,11.20
2022-10-18T06:37:28.468Z,11.19
2022-10-18T06:38:18.408Z,11.21
2022-10-18T06:39:08.407Z,11.23
2022-10-18T06:39:58.399Z,11.26
2022-10-18T06:40:48.426Z,11.26
2022-10-18T06:41:38.378Z,11.27
2022-10-18T06:42:28.373Z,11.28
2022-10-18T06:43:21.696Z,11.30
2022-10-18T06:44:08.366Z,11.33
2022-10-18T06:44:58.356Z,11.33
2022-10-18T06:45:48.338Z,11.35
2022-10-18T06:46:38.362Z,11.35
2022-10-18T06:47:28.316Z,11.38
2022-10-18T06:49:08.300Z,11.35
2022-10-18T06:49:58.288Z,11.31
2022-10-18T06:50:48.309Z,11.31
2022-10-18T06:51:38.286Z,11.33
2022-10-18T06:52:28.306Z,11.35
2022-10-18T06:53:18.247Z,11.36
2022-10-18T06:54:17.310Z,11.39
2022-10-18T06:54:59.228Z,11.39
2022-10-18T06:55:48.242Z,11.41
2022-10-18T06:56:38.214Z,11.44
2022-10-18T06:57:28.210Z,11.45
2022-10-18T06:58:18.265Z,11.48
2022-10-18T06:59:08.186Z,11.48
2022-10-18T06:59:58.175Z,11.51
2022-10-18T07:00:48.167Z,11.53
2022-10-18T07:01:38.232Z,11.53
2022-10-18T07:02:28.146Z,11.54
2022-10-18T07:03:18.135Z,11.57
2022-10-18T07:04:08.375Z,11.54
2022-10-18T07:04:58.115Z,11.57
2022-10-18T07:05:48.106Z,11.59
2022-10-18T07:06:38.094Z,11.63
2022-10-18T07:07:28.095Z,11.66
2022-10-18T07:08:18.076Z,11.67
2022-10-18T07:09:08.097Z,11.70
2022-10-18T07:09:58.094Z,11.72
2022-10-18T07:10:48.054Z,11.74
2022-10-18T07:11:38.044Z,11.75
2022-10-18T07:12:28.034Z,11.77
2022-10-18T07:13:32.023Z,11.78
2022-10-18T07:14:12.551Z,11.77
2022-10-18T07:14:59.216Z,11.78
2022-10-18T07:15:48.071Z,11.84
2022-10-18T07:16:38.366Z,11.85
2022-10-18T07:17:27.980Z,11.88
2022-10-18T07:18:17.982Z,11.93
2022-10-18T07:19:07.966Z,11.94
2022-10-18T07:19:57.953Z,11.94
2022-10-18T07:20:47.970Z,11.96
2022-10-18T07:21:37.945Z,11.96
2022-10-18T07:22:30.295Z,11.98
2022-10-18T07:23:17.913Z,12.01
2022-10-18T07:24:07.904Z,12.00
2022-10-18T07:24:57.894Z,12.00
2022-10-18T07:25:47.962Z,12.01
2022-10-18T07:26:37.902Z,12.04
2022-10-18T07:27:27.872Z,12.07
2022-10-18T07:28:17.853Z,12.11
2022-10-18T07:29:07.927Z,12.13
2022-10-18T07:29:57.835Z,12.16
2022-10-18T07:30:47.844Z,12.19
2022-10-18T07:31:37.822Z,12.21
2022-10-18T07:32:27.832Z,12.23
2022-10-18T07:33:17.801Z,12.26
2022-10-18T07:34:07.798Z,12.29
2022-10-18T07:34:57.790Z,12.33
2022-10-18T07:35:47.823Z,12.36
2022-10-18T07:36:37.754Z,12.38
2022-10-18T07:37:29.428Z,12.41
2022-10-18T07:38:17.963Z,12.43
2022-10-18T07:39:07.731Z,12.46
2022-10-18T07:39:57.722Z,12.48
2022-10-18T07:40:47.723Z,12.51
2022-10-18T07:41:37.701Z,12.54
2022-10-18T07:42:27.701Z,12.56
2022-10-18T07:43:17.682Z,12.61
2022-10-18T07:44:07.714Z,12.61
2022-10-18T07:44:57.663Z,12.62
2022-10-18T07:45:47.663Z,12.62
2022-10-18T07:46:37.653Z,12.62
2022-10-18T07:47:30.047Z,12.66
2022-10-18T07:48:18.633Z,12.63
2022-10-18T07:49:07.630Z,12.63
2022-10-18T07:49:57.691Z,12.67
2022-10-18T07:50:47.601Z,12.71
2022-10-18T07:51:37.588Z,12.70
2022-10-18T07:52:27.580Z,12.71
2022-10-18T07:53:17.570Z,12.74
2022-10-18T07:54:07.569Z,12.79
2022-10-18T07:54:57.559Z,12.80
2022-10-18T07:55:47.616Z,12.84
2022-10-18T07:56:37.533Z,12.85
2022-10-18T07:57:27.534Z,12.89
2022-10-18T07:58:17.520Z,12.92
2022-10-18T07:59:07.512Z,12.95
2022-10-18T07:59:57.500Z,12.99
2022-10-18T08:00:47.495Z,13.01
2022-10-18T08:01:37.582Z,12.99
2022-10-18T08:02:27.470Z,13.03
2022-10-18T08:03:17.460Z,13.06
2022-10-18T08:04:09.089Z,13.09
2022-10-18T08:04:57.440Z,13.12
2022-10-18T08:05:47.501Z,13.16
2022-10-18T08:06:37.418Z,13.17
2022-10-18T08:07:29.197Z,13.17
2022-10-18T08:08:17.407Z,13.16
2022-10-18T08:09:07.400Z,13.16
2022-10-18T08:09:57.386Z,13.21
2022-10-18T08:10:47.386Z,13.22
2022-10-18T08:11:37.368Z,13.25
2022-10-18T08:12:27.366Z,13.31
2022-10-18T08:13:17.568Z,13.35
2022-10-18T08:14:07.339Z,13.36
2022-10-18T08:14:57.328Z,13.39
2022-10-18T08:15:47.345Z,13.39
2022-10-18T08:16:37.312Z,13.39
2022-10-18T08:17:27.314Z,13.47
2022-10-18T08:18:17.288Z,13.50
2022-10-18T08:19:07.505Z,13.53
2022-10-18T08:20:11.574Z,13.55
2022-10-18T08:20:48.267Z,13.55
2022-10-18T08:21:37.257Z,13.59
2022-10-18T08:22:27.251Z,13.63
2022-10-18T08:23:17.238Z,13.66
2022-10-18T08:24:07.237Z,13.66
2022-10-18T08:24:57.260Z,13.68
2022-10-18T08:25:47.226Z,13.72
2022-10-18T08:26:37.200Z,13.73
2022-10-18T08:27:27.210Z,13.76
2022-10-18T08:28:17.178Z,13.80
2022-10-18T08:29:21.849Z,13.76
2022-10-18T08:29:58.435Z,13.79
2022-10-18T08:30:47.159Z,13.80
2022-10-18T08:31:37.148Z,13.83
2022-10-18T08:32:27.138Z,13.86
2022-10-18T08:33:17.128Z,13.88
2022-10-18T08:34:07.151Z,13.91
2022-10-18T08:34:57.112Z,13.90
2022-10-18T08:35:47.128Z,13.90
2022-10-18T08:36:37.089Z,13.93
2022-10-18T08:37:27.077Z,13.94
2022-10-18T08:38:18.898Z,13.94
2022-10-18T08:39:07.080Z,13.99
2022-10-18T08:39:57.107Z,14.01
2022-10-18T08:40:47.047Z,13.99
2022-10-18T08:41:37.069Z,13.99
2022-10-18T08:42:27.027Z,14.01
2022-10-18T08:43:21.450Z,14.02
2022-10-18T08:44:07.513Z,14.05
2022-10-18T08:44:56.997Z,14.09
2022-10-18T08:45:47.000Z,14.11
2022-10-18T08:46:36.984Z,14.11
2022-10-18T08:47:27.006Z,14.13
2022-10-18T08:48:16.956Z,14.12
2022-10-18T08:49:06.955Z,14.16
2022-10-18T08:49:56.935Z,14.17
2022-10-18T08:50:46.940Z,14.19
2022-10-18T08:51:36.926Z,14.20
2022-10-18T08:52:26.968Z,14.21
2022-10-18T08:53:17.163Z,14.23
2022-10-18T08:54:06.897Z,14.24
2022-10-18T08:54:56.887Z,14.24
2022-10-18T08:55:46.905Z,14.26
2022-10-18T08:56:36.865Z,14.27
2022-10-18T08:57:26.856Z,14.29
2022-10-18T08:58:16.848Z,14.30
2022-10-18T08:59:06.865Z,14.31
2022-10-18T08:59:56.825Z,14.35
2022-10-18T09:00:46.845Z,14.36
2022-10-18T09:01:36.873Z,14.39
2022-10-18T09:02:26.805Z,14.41
2022-10-18T09:03:16.871Z,14.44
2022-10-18T09:04:06.878Z,14.45
2022-10-18T09:04:56.776Z,14.48
2022-10-18T09:05:46.774Z,14.53
2022-10-18T09:06:36.758Z,14.59
2022-10-18T09:07:26.752Z,14.64
2022-10-18T09:08:16.744Z,14.66
2022-10-18T09:09:06.735Z,14.71
2022-10-18T09:09:56.756Z,14.75
2022-10-18T09:10:46.782Z,14.80
2022-10-18T09:11:36.696Z,14.85
2022-10-18T09:12:26.695Z,14.93
2022-10-18T09:13:16.686Z,14.97
2022-10-18T09:14:06.680Z,15.04
2022-10-18T09:14:56.674Z,15.12
2022-10-18T09:15:46.688Z,15.16
2022-10-18T09:16:36.647Z,15.22
2022-10-18T09:17:26.647Z,15.30
2022-10-18T09:18:16.646Z,15.33
2022-10-18T09:19:06.625Z,15.38
2022-10-18T09:19:56.650Z,15.44
2022-10-18T09:20:46.618Z,15.48
2022-10-18T09:21:36.642Z,15.53
2022-10-18T09:22:26.596Z,15.56
2022-10-18T09:23:16.575Z,15.64
2022-10-18T09:24:06.584Z,15.67
2022-10-18T09:24:56.631Z,15.70
2022-10-18T09:25:46.554Z,15.74
2022-10-18T09:26:36.549Z,15.78
2022-10-18T09:27:26.772Z,15.80
2022-10-18T09:28:16.530Z,15.85
2022-10-18T09:29:06.674Z,15.88
2022-10-18T09:29:56.533Z,15.92
2022-10-18T09:30:46.504Z,15.93
2022-10-18T09:31:36.492Z,15.96
2022-10-18T09:32:26.485Z,15.99
2022-10-18T09:33:16.528Z,16.03
2022-10-18T09:34:06.474Z,16.07
2022-10-18T09:34:56.461Z,16.08
2022-10-18T09:35:46.454Z,16.13
2022-10-18T09:36:36.446Z,16.16
2022-10-18T09:37:26.434Z,16.16
2022-10-18T09:38:16.456Z,16.18
2022-10-18T09:39:06.459Z,16.25
2022-10-18T09:39:56.414Z,16.26
2022-10-18T09:40:46.406Z,16.29
2022-10-18T09:41:36.392Z,16.37
2022-10-18T09:42:26.383Z,16.44
2022-10-18T09:43:16.433Z,16.48
2022-10-18T09:44:06.373Z,16.59
2022-10-18T09:44:56.572Z,16.70
2022-10-18T09:45:46.353Z,16.78
2022-10-18T09:46:36.352Z,16.82
2022-10-18T09:47:26.417Z,16.92
2022-10-18T09:48:16.335Z,17.03
2022-10-18T09:49:06.315Z,17.15
2022-10-18T09:49:56.315Z,17.21
2022-10-18T09:50:46.563Z,17.36
2022-10-18T09:51:36.293Z,17.46
2022-10-18T09:52:26.280Z,17.54
2022-10-18T09:53:16.297Z,17.70
2022-10-18T09:54:06.263Z,17.77
2022-10-18T09:54:56.265Z,17.91
2022-10-18T09:55:46.253Z,17.95
2022-10-18T09:56:39.406Z,18.02
2022-10-18T09:57:27.232Z,18.07
2022-10-18T09:58:16.234Z,18.10
2022-10-18T09:59:06.211Z,18.14
2022-10-18T09:59:56.213Z,18.16
2022-10-18T10:00:46.203Z,18.19
2022-10-18T10:01:36.202Z,18.23
2022-10-18T10:02:26.241Z,18.26
2022-10-18T10:03:16.182Z,18.31
2022-10-18T10:04:06.162Z,18.38
2022-10-18T10:04:56.162Z,18.42
2022-10-18T10:05:46.151Z,18.50
2022-10-18T10:06:36.157Z,18.62
2022-10-18T10:07:27.687Z,18.65
2022-10-18T10:08:16.182Z,18.71
2022-10-18T10:09:06.116Z,18.75
2022-10-18T10:09:56.121Z,18.75
2022-10-18T10:10:46.092Z,18.82
2022-10-18T10:11:36.090Z,18.90
2022-10-18T10:12:26.081Z,18.96
2022-10-18T10:13:16.074Z,19.01
2022-10-18T10:14:06.598Z,19.05
2022-10-18T10:14:56.061Z,19.10
2022-10-18T10:15:46.054Z,19.13
2022-10-18T10:16:36.042Z,19.20
2022-10-18T10:17:26.022Z,19.27
2022-10-18T10:18:16.031Z,19.25
2022-10-18T10:19:06.002Z,19.28
2022-10-18T10:19:56.032Z,19.32
2022-10-18T10:20:45.995Z,19.35
2022-10-18T10:21:35.988Z,19.42
2022-10-18T10:22:25.983Z,19.46
2022-10-18T10:23:16.019Z,19.50
2022-10-18T10:24:05.950Z,19.52
2022-10-18T10:24:55.943Z,19.61
2022-10-18T10:25:46.012Z,19.75
2022-10-18T10:26:35.934Z,19.79
2022-10-18T10:27:25.975Z,19.82
2022-10-18T10:28:15.903Z,19.85
2022-10-18T10:29:13.247Z,19.87
2022-10-18T10:29:56.891Z,19.94
2022-10-18T10:30:45.881Z,20.00
2022-10-18T10:31:36.153Z,20.00
2022-10-18T10:32:28.849Z,20.04
2022-10-18T10:33:15.844Z,20.10
2022-10-18T10:34:05.850Z,20.16
2022-10-18T10:34:55.835Z,20.19
2022-10-18T10:35:54.036Z,20.20
2022-10-18T10:36:36.832Z,20.20
2022-10-18T10:37:25.801Z,20.13
2022-10-18T10:38:15.794Z,20.15
2022-10-18T10:39:05.785Z,20.12
2022-10-18T10:40:17.257Z,20.16
2022-10-18T10:40:46.764Z,20.10
2022-10-18T10:41:35.768Z,20.05
2022-10-18T10:42:25.782Z,20.01
2022-10-18T10:43:32.982Z,19.98
2022-10-18T10:44:06.723Z,19.94
2022-10-18T10:44:55.721Z,19.97
2022-10-18T10:45:45.702Z,20.07